sensor_id;sensor_type;location;lat;lon;timestamp;temperature;humidity
48208;DHT22;33997;53.278;9.708;2023-04-03T00:01:24;-3276.10;92.40
48208;DHT22;33997;53.278;9.708;2023-04-03T00:03:49;-3276.00;92.40
48208;DHT22;33997;53.278;9.708;2023-04-03T00:06:17;-3276.00;92.60
48208;DHT22;33997;53.278;9.708;2023-04-03T00:08:42;-3276.00;92.80
48208;DHT22;33997;53.278;9.708;2023-04-03T00:11:09;-3276.10;93.10
48208;DHT22;33997;53.278;9.708;2023-04-03T00:13:35;-3276.10;92.90
48208;DHT22;33997;53.278;9.708;2023-04-03T00:16:00;-3276.00;92.80
48208;DHT22;33997;53.278;9.708;2023-04-03T00:18:27;-3276.00;93.00
48208;DHT22;33997;53.278;9.708;2023-04-03T00:20:52;-3275.90;92.90
48208;DHT22;33997;53.278;9.708;2023-04-03T00:23:18;-3275.80;93.00
48208;DHT22;33997;53.278;9.708;2023-04-03T00:25:43;-3275.80;93.10
48208;DHT22;33997;53.278;9.708;2023-04-03T00:28:09;-3275.80;93.20
48208;DHT22;33997;53.278;9.708;2023-04-03T00:30:35;-3275.90;93.50
48208;DHT22;33997;53.278;9.708;2023-04-03T00:33:01;-3275.90;93.30
48208;DHT22;33997;53.278;9.708;2023-04-03T00:35:26;-3275.90;93.40
48208;DHT22;33997;53.278;9.708;2023-04-03T00:37:54;-3275.90;93.30
48208;DHT22;33997;53.278;9.708;2023-04-03T00:40:22;-3275.90;93.40
48208;DHT22;33997;53.278;9.708;2023-04-03T00:42:49;-3276.00;93.50
48208;DHT22;33997;53.278;9.708;2023-04-03T00:45:36;-3276.00;93.60
48208;DHT22;33997;53.278;9.708;2023-04-03T00:48:04;-3275.90;93.40
48208;DHT22;33997;53.278;9.708;2023-04-03T00:50:33;-3275.80;93.40
48208;DHT22;33997;53.278;9.708;2023-04-03T00:52:59;-3275.80;93.60
48208;DHT22;33997;53.278;9.708;2023-04-03T00:55:25;-3275.90;93.70
48208;DHT22;33997;53.278;9.708;2023-04-03T00:57:52;-3275.80;93.80
48208;DHT22;33997;53.278;9.708;2023-04-03T01:00:20;-3275.90;93.90
48208;DHT22;33997;53.278;9.708;2023-04-03T01:02:45;-3275.90;93.80
48208;DHT22;33997;53.278;9.708;2023-04-03T01:05:11;-3275.80;93.80
48208;DHT22;33997;53.278;9.708;2023-04-03T01:07:38;-3275.70;93.80
48208;DHT22;33997;53.278;9.708;2023-04-03T01:10:08;-3275.70;93.90
48208;DHT22;33997;53.278;9.708;2023-04-03T01:12:39;-3275.70;93.90
48208;DHT22;33997;53.278;9.708;2023-04-03T01:15:18;-3275.60;93.90
48208;DHT22;33997;53.278;9.708;2023-04-03T01:18:10;-3275.50;93.90
48208;DHT22;33997;53.278;9.708;2023-04-03T01:23:24;-3275.50;94.00
48208;DHT22;33997;53.278;9.708;2023-04-03T01:25:54;-3275.40;94.10
48208;DHT22;33997;53.278;9.708;2023-04-03T01:28:29;-3275.40;94.10
48208;DHT22;33997;53.278;9.708;2023-04-03T01:31:13;-3275.40;94.10
48208;DHT22;33997;53.278;9.708;2023-04-03T01:33:41;-3275.40;94.20
48208;DHT22;33997;53.278;9.708;2023-04-03T01:36:07;-3275.30;94.20
48208;DHT22;33997;53.278;9.708;2023-04-03T01:38:33;-3275.30;94.20
48208;DHT22;33997;53.278;9.708;2023-04-03T01:40:58;-3275.20;94.20
48208;DHT22;33997;53.278;9.708;2023-04-03T01:43:24;-3275.20;94.20
48208;DHT22;33997;53.278;9.708;2023-04-03T01:45:49;-3275.10;94.30
48208;DHT22;33997;53.278;9.708;2023-04-03T01:48:15;-3275.10;94.40
48208;DHT22;33997;53.278;9.708;2023-04-03T01:50:41;-3275.10;94.40
48208;DHT22;33997;53.278;9.708;2023-04-03T01:53:07;-3275.10;94.50
48208;DHT22;33997;53.278;9.708;2023-04-03T01:55:33;-3275.10;94.50
48208;DHT22;33997;53.278;9.708;2023-04-03T01:57:58;-3275.00;94.40
48208;DHT22;33997;53.278;9.708;2023-04-03T02:00:24;-3275.10;94.60
48208;DHT22;33997;53.278;9.708;2023-04-03T02:02:49;-3275.10;94.60
48208;DHT22;33997;53.278;9.708;2023-04-03T02:05:15;-3275.00;94.60
48208;DHT22;33997;53.278;9.708;2023-04-03T02:07:41;-3275.00;94.60
48208;DHT22;33997;53.278;9.708;2023-04-03T02:10:06;-3275.00;94.60
48208;DHT22;33997;53.278;9.708;2023-04-03T02:12:32;-3275.00;94.70
48208;DHT22;33997;53.278;9.708;2023-04-03T02:14:58;-3275.00;94.80
48208;DHT22;33997;53.278;9.708;2023-04-03T02:17:23;-3275.00;94.80
48208;DHT22;33997;53.278;9.708;2023-04-03T02:19:48;-3275.00;94.90
48208;DHT22;33997;53.278;9.708;2023-04-03T02:22:14;-3275.00;94.90
48208;DHT22;33997;53.278;9.708;2023-04-03T02:24:40;-3275.00;94.90
48208;DHT22;33997;53.278;9.708;2023-04-03T02:27:06;-3275.00;94.80
48208;DHT22;33997;53.278;9.708;2023-04-03T02:29:32;-3275.00;94.90
48208;DHT22;33997;53.278;9.708;2023-04-03T02:31:57;-3274.90;94.80
48208;DHT22;33997;53.278;9.708;2023-04-03T02:34:23;-3274.90;94.80
48208;DHT22;33997;53.278;9.708;2023-04-03T02:36:48;-3274.90;94.90
48208;DHT22;33997;53.278;9.708;2023-04-03T02:39:14;-3274.80;94.90
48208;DHT22;33997;53.278;9.708;2023-04-03T02:41:40;-3274.80;94.90
48208;DHT22;33997;53.278;9.708;2023-04-03T02:44:06;-3274.80;94.90
48208;DHT22;33997;53.278;9.708;2023-04-03T02:46:32;-3274.80;95.00
48208;DHT22;33997;53.278;9.708;2023-04-03T02:48:58;-3274.80;95.00
48208;DHT22;33997;53.278;9.708;2023-04-03T02:51:24;-3274.70;94.90
48208;DHT22;33997;53.278;9.708;2023-04-03T02:53:50;-3274.70;95.00
48208;DHT22;33997;53.278;9.708;2023-04-03T02:56:16;-3274.70;95.10
48208;DHT22;33997;53.278;9.708;2023-04-03T02:58:42;-3274.70;95.10
48208;DHT22;33997;53.278;9.708;2023-04-03T03:01:08;-3274.70;95.10
48208;DHT22;33997;53.278;9.708;2023-04-03T03:03:33;-3274.70;95.00
48208;DHT22;33997;53.278;9.708;2023-04-03T03:06:07;-3274.70;95.10
48208;DHT22;33997;53.278;9.708;2023-04-03T03:08:33;-3274.70;95.20
48208;DHT22;33997;53.278;9.708;2023-04-03T03:10:59;-3274.70;95.20
48208;DHT22;33997;53.278;9.708;2023-04-03T03:13:25;-3274.70;95.30
48208;DHT22;33997;53.278;9.708;2023-04-03T03:15:50;-3274.70;95.30
48208;DHT22;33997;53.278;9.708;2023-04-03T03:18:16;-3274.70;95.20
48208;DHT22;33997;53.278;9.708;2023-04-03T03:20:42;-3274.70;95.20
48208;DHT22;33997;53.278;9.708;2023-04-03T03:23:07;-3274.70;95.20
48208;DHT22;33997;53.278;9.708;2023-04-03T03:25:32;-3274.70;95.30
48208;DHT22;33997;53.278;9.708;2023-04-03T03:27:58;-3274.70;95.20
48208;DHT22;33997;53.278;9.708;2023-04-03T03:30:23;-3274.70;95.30
48208;DHT22;33997;53.278;9.708;2023-04-03T03:32:49;-3274.70;95.30
48208;DHT22;33997;53.278;9.708;2023-04-03T03:35:14;-3274.70;95.30
48208;DHT22;33997;53.278;9.708;2023-04-03T03:37:40;-3274.70;95.30
48208;DHT22;33997;53.278;9.708;2023-04-03T03:40:06;-3274.70;95.30
48208;DHT22;33997;53.278;9.708;2023-04-03T03:42:32;-3274.60;95.30
48208;DHT22;33997;53.278;9.708;2023-04-03T03:44:57;-3274.60;95.20
48208;DHT22;33997;53.278;9.708;2023-04-03T03:47:23;-3274.60;95.20
48208;DHT22;33997;53.278;9.708;2023-04-03T03:49:48;-3274.50;95.30
48208;DHT22;33997;53.278;9.708;2023-04-03T03:52:14;-3274.60;95.30
48208;DHT22;33997;53.278;9.708;2023-04-03T03:54:39;-3274.60;95.30
48208;DHT22;33997;53.278;9.708;2023-04-03T03:57:05;-3274.50;95.30
48208;DHT22;33997;53.278;9.708;2023-04-03T03:59:30;-3274.50;95.30
48208;DHT22;33997;53.278;9.708;2023-04-03T04:01:56;-3274.50;95.30
48208;DHT22;33997;53.278;9.708;2023-04-03T04:04:22;-3274.50;95.50
48208;DHT22;33997;53.278;9.708;2023-04-03T04:06:47;-3274.50;95.40
48208;DHT22;33997;53.278;9.708;2023-04-03T04:09:13;-3274.40;95.30
48208;DHT22;33997;53.278;9.708;2023-04-03T04:11:38;-3274.40;95.50
48208;DHT22;33997;53.278;9.708;2023-04-03T04:14:06;-3274.40;95.40
48208;DHT22;33997;53.278;9.708;2023-04-03T04:16:31;-3274.40;95.40
48208;DHT22;33997;53.278;9.708;2023-04-03T04:18:57;-3274.40;95.40
48208;DHT22;33997;53.278;9.708;2023-04-03T04:21:22;-3274.40;95.40
48208;DHT22;33997;53.278;9.708;2023-04-03T04:23:48;-3274.30;95.30
48208;DHT22;33997;53.278;9.708;2023-04-03T04:26:13;-3274.30;95.30
48208;DHT22;33997;53.278;9.708;2023-04-03T04:28:38;-3274.30;95.40
48208;DHT22;33997;53.278;9.708;2023-04-03T04:31:04;-3274.30;95.30
48208;DHT22;33997;53.278;9.708;2023-04-03T04:33:29;-3274.30;95.40
48208;DHT22;33997;53.278;9.708;2023-04-03T04:35:55;-3274.30;95.40
48208;DHT22;33997;53.278;9.708;2023-04-03T04:38:21;-3274.20;95.30
48208;DHT22;33997;53.278;9.708;2023-04-03T04:40:47;-3274.20;95.30
48208;DHT22;33997;53.278;9.708;2023-04-03T04:43:13;-3274.20;95.30
48208;DHT22;33997;53.278;9.708;2023-04-03T04:45:40;-3274.20;95.40
48208;DHT22;33997;53.278;9.708;2023-04-03T04:48:05;-3274.20;95.30
48208;DHT22;33997;53.278;9.708;2023-04-03T04:50:31;-3274.20;95.30
48208;DHT22;33997;53.278;9.708;2023-04-03T04:52:56;-3274.20;95.40
48208;DHT22;33997;53.278;9.708;2023-04-03T04:55:22;-3274.20;95.40
48208;DHT22;33997;53.278;9.708;2023-04-03T04:57:47;-3274.20;95.50
48208;DHT22;33997;53.278;9.708;2023-04-03T05:00:13;-3274.20;95.50
48208;DHT22;33997;53.278;9.708;2023-04-03T05:02:39;-3274.20;95.50
48208;DHT22;33997;53.278;9.708;2023-04-03T05:05:05;-3274.20;95.60
48208;DHT22;33997;53.278;9.708;2023-04-03T05:07:31;-3274.30;95.60
48208;DHT22;33997;53.278;9.708;2023-04-03T05:09:56;-3274.20;95.60
48208;DHT22;33997;53.278;9.708;2023-04-03T05:12:22;-3274.30;95.80
48208;DHT22;33997;53.278;9.708;2023-04-03T05:14:47;-3274.30;95.70
48208;DHT22;33997;53.278;9.708;2023-04-03T05:17:13;-3274.30;95.90
48208;DHT22;33997;53.278;9.708;2023-04-03T05:19:38;-3274.30;95.90
48208;DHT22;33997;53.278;9.708;2023-04-03T05:22:04;-3274.40;95.80
48208;DHT22;33997;53.278;9.708;2023-04-03T05:24:29;-3274.40;95.90
48208;DHT22;33997;53.278;9.708;2023-04-03T05:26:55;-3274.50;95.90
48208;DHT22;33997;53.278;9.708;2023-04-03T05:29:21;-3274.40;95.90
48208;DHT22;33997;53.278;9.708;2023-04-03T05:31:49;-3274.40;95.80
48208;DHT22;33997;53.278;9.708;2023-04-03T05:34:15;-3274.50;95.90
48208;DHT22;33997;53.278;9.708;2023-04-03T05:36:41;-3274.40;95.80
48208;DHT22;33997;53.278;9.708;2023-04-03T05:39:07;-3274.50;96.00
48208;DHT22;33997;53.278;9.708;2023-04-03T05:41:33;-3274.60;96.00
48208;DHT22;33997;53.278;9.708;2023-04-03T05:43:58;-3274.70;95.90
48208;DHT22;33997;53.278;9.708;2023-04-03T05:46:24;-3274.70;95.90
48208;DHT22;33997;53.278;9.708;2023-04-03T05:48:49;-3274.70;95.80
48208;DHT22;33997;53.278;9.708;2023-04-03T05:51:22;-3274.70;95.80
48208;DHT22;33997;53.278;9.708;2023-04-03T05:53:49;-3274.80;95.80
48208;DHT22;33997;53.278;9.708;2023-04-03T05:56:17;-3274.80;95.70
48208;DHT22;33997;53.278;9.708;2023-04-03T05:58:43;-3274.90;95.70
48208;DHT22;33997;53.278;9.708;2023-04-03T06:01:08;-3275.00;95.70
48208;DHT22;33997;53.278;9.708;2023-04-03T06:03:34;-3275.10;95.60
48208;DHT22;33997;53.278;9.708;2023-04-03T06:06:02;-3275.20;95.60
48208;DHT22;33997;53.278;9.708;2023-04-03T06:08:28;-3275.20;95.50
48208;DHT22;33997;53.278;9.708;2023-04-03T06:10:54;-3275.40;95.50
48208;DHT22;33997;53.278;9.708;2023-04-03T06:13:19;-3275.50;95.50
48208;DHT22;33997;53.278;9.708;2023-04-03T06:15:45;-3275.60;95.50
48208;DHT22;33997;53.278;9.708;2023-04-03T06:18:11;-3275.70;95.40
48208;DHT22;33997;53.278;9.708;2023-04-03T06:20:37;-3275.90;95.40
48208;DHT22;33997;53.278;9.708;2023-04-03T06:23:02;-3276.00;95.20
48208;DHT22;33997;53.278;9.708;2023-04-03T06:25:28;-3276.10;95.10
48208;DHT22;33997;53.278;9.708;2023-04-03T06:27:54;-3276.20;95.20
48208;DHT22;33997;53.278;9.708;2023-04-03T06:30:20;-3276.40;95.00
48208;DHT22;33997;53.278;9.708;2023-04-03T06:32:46;-3276.50;94.70
48208;DHT22;33997;53.278;9.708;2023-04-03T06:35:11;-3276.70;94.40
48208;DHT22;33997;53.278;9.708;2023-04-03T06:37:37;0.10;94.00
48208;DHT22;33997;53.278;9.708;2023-04-03T06:40:03;0.20;93.20
48208;DHT22;33997;53.278;9.708;2023-04-03T06:42:29;0.40;92.90
48208;DHT22;33997;53.278;9.708;2023-04-03T06:44:55;0.50;92.50
48208;DHT22;33997;53.278;9.708;2023-04-03T06:47:20;0.70;92.40
48208;DHT22;33997;53.278;9.708;2023-04-03T06:49:46;0.90;92.40
48208;DHT22;33997;53.278;9.708;2023-04-03T06:52:11;1.40;92.50
48208;DHT22;33997;53.278;9.708;2023-04-03T06:54:38;1.70;90.80
48208;DHT22;33997;53.278;9.708;2023-04-03T06:57:04;2.10;89.20
48208;DHT22;33997;53.278;9.708;2023-04-03T06:59:30;2.10;88.10
48208;DHT22;33997;53.278;9.708;2023-04-03T07:01:55;2.50;88.30
48208;DHT22;33997;53.278;9.708;2023-04-03T07:04:21;2.70;86.70
48208;DHT22;33997;53.278;9.708;2023-04-03T07:06:47;3.20;86.00
48208;DHT22;33997;53.278;9.708;2023-04-03T07:09:13;3.40;85.40
48208;DHT22;33997;53.278;9.708;2023-04-03T07:11:39;3.40;84.90
48208;DHT22;33997;53.278;9.708;2023-04-03T07:14:04;3.50;82.50
48208;DHT22;33997;53.278;9.708;2023-04-03T07:16:31;3.60;82.60
48208;DHT22;33997;53.278;9.708;2023-04-03T07:18:57;3.80;81.90
48208;DHT22;33997;53.278;9.708;2023-04-03T07:21:23;3.80;78.90
48208;DHT22;33997;53.278;9.708;2023-04-03T07:23:48;3.80;79.90
48208;DHT22;33997;53.278;9.708;2023-04-03T07:26:14;4.00;79.20
48208;DHT22;33997;53.278;9.708;2023-04-03T07:28:39;4.10;77.40
48208;DHT22;33997;53.278;9.708;2023-04-03T07:31:08;4.20;77.50
48208;DHT22;33997;53.278;9.708;2023-04-03T07:33:37;4.30;76.70
48208;DHT22;33997;53.278;9.708;2023-04-03T07:36:04;4.20;75.00
48208;DHT22;33997;53.278;9.708;2023-04-03T07:38:29;4.30;76.60
48208;DHT22;33997;53.278;9.708;2023-04-03T07:40:55;4.50;77.00
48208;DHT22;33997;53.278;9.708;2023-04-03T07:43:21;4.50;75.10
48208;DHT22;33997;53.278;9.708;2023-04-03T07:45:48;4.60;74.10
48208;DHT22;33997;53.278;9.708;2023-04-03T07:48:23;4.70;74.60
48208;DHT22;33997;53.278;9.708;2023-04-03T07:50:49;4.80;72.30
48208;DHT22;33997;53.278;9.708;2023-04-03T07:53:15;4.80;72.00
48208;DHT22;33997;53.278;9.708;2023-04-03T07:55:41;4.90;70.80
48208;DHT22;33997;53.278;9.708;2023-04-03T07:58:14;5.00;70.70
48208;DHT22;33997;53.278;9.708;2023-04-03T08:00:41;5.00;70.10
48208;DHT22;33997;53.278;9.708;2023-04-03T08:03:08;5.10;70.30
48208;DHT22;33997;53.278;9.708;2023-04-03T08:05:40;5.00;68.30
48208;DHT22;33997;53.278;9.708;2023-04-03T08:08:06;5.10;68.50
48208;DHT22;33997;53.278;9.708;2023-04-03T08:10:32;5.40;69.60
48208;DHT22;33997;53.278;9.708;2023-04-03T08:12:58;5.50;69.00
48208;DHT22;33997;53.278;9.708;2023-04-03T08:15:24;5.90;68.00
48208;DHT22;33997;53.278;9.708;2023-04-03T08:17:50;6.00;67.70
48208;DHT22;33997;53.278;9.708;2023-04-03T08:20:16;6.60;67.50
48208;DHT22;33997;53.278;9.708;2023-04-03T08:22:41;6.40;66.90
48208;DHT22;33997;53.278;9.708;2023-04-03T08:25:07;6.60;65.10
48208;DHT22;33997;53.278;9.708;2023-04-03T08:27:33;7.00;64.80
48208;DHT22;33997;53.278;9.708;2023-04-03T08:29:58;7.10;64.00
48208;DHT22;33997;53.278;9.708;2023-04-03T08:32:24;7.50;63.90
48208;DHT22;33997;53.278;9.708;2023-04-03T08:34:50;7.70;62.40
48208;DHT22;33997;53.278;9.708;2023-04-03T08:37:15;7.80;63.60
48208;DHT22;33997;53.278;9.708;2023-04-03T08:39:44;8.20;61.70
48208;DHT22;33997;53.278;9.708;2023-04-03T08:42:28;8.60;61.10
48208;DHT22;33997;53.278;9.708;2023-04-03T08:45:08;8.00;60.00
48208;DHT22;33997;53.278;9.708;2023-04-03T08:47:50;8.00;60.40
48208;DHT22;33997;53.278;9.708;2023-04-03T08:50:20;8.70;58.80
48208;DHT22;33997;53.278;9.708;2023-04-03T08:52:51;8.50;58.00
48208;DHT22;33997;53.278;9.708;2023-04-03T08:55:27;8.50;56.90
48208;DHT22;33997;53.278;9.708;2023-04-03T08:58:18;8.50;58.00
48208;DHT22;33997;53.278;9.708;2023-04-03T09:03:18;8.40;58.80
48208;DHT22;33997;53.278;9.708;2023-04-03T09:08:36;8.80;55.90
48208;DHT22;33997;53.278;9.708;2023-04-03T09:11:35;9.00;57.00
48208;DHT22;33997;53.278;9.708;2023-04-03T09:14:15;9.10;54.50
48208;DHT22;33997;53.278;9.708;2023-04-03T09:19:15;8.80;49.80
48208;DHT22;33997;53.278;9.708;2023-04-03T09:21:43;9.30;54.50
48208;DHT22;33997;53.278;9.708;2023-04-03T09:24:11;9.40;49.80
48208;DHT22;33997;53.278;9.708;2023-04-03T09:26:53;9.10;49.70
48208;DHT22;33997;53.278;9.708;2023-04-03T09:29:22;9.20;48.60
48208;DHT22;33997;53.278;9.708;2023-04-03T09:32:01;9.90;51.70
48208;DHT22;33997;53.278;9.708;2023-04-03T09:34:30;9.60;47.10
48208;DHT22;33997;53.278;9.708;2023-04-03T09:37:02;9.50;49.70
48208;DHT22;33997;53.278;9.708;2023-04-03T09:39:32;9.30;49.30
48208;DHT22;33997;53.278;9.708;2023-04-03T09:42:01;9.70;49.40
48208;DHT22;33997;53.278;9.708;2023-04-03T09:44:37;9.10;46.00
48208;DHT22;33997;53.278;9.708;2023-04-03T09:47:26;9.60;49.80
48208;DHT22;33997;53.278;9.708;2023-04-03T09:52:38;9.70;49.80
48208;DHT22;33997;53.278;9.708;2023-04-03T09:55:25;9.80;47.80
48208;DHT22;33997;53.278;9.708;2023-04-03T09:58:02;10.30;50.10
48208;DHT22;33997;53.278;9.708;2023-04-03T10:00:33;9.50;44.60
48208;DHT22;33997;53.278;9.708;2023-04-03T10:02:59;9.40;48.30
48208;DHT22;33997;53.278;9.708;2023-04-03T10:05:29;9.40;46.60
48208;DHT22;33997;53.278;9.708;2023-04-03T10:10:42;9.60;46.30
48208;DHT22;33997;53.278;9.708;2023-04-03T10:13:13;10.10;47.70
48208;DHT22;33997;53.278;9.708;2023-04-03T10:15:43;10.30;46.50
48208;DHT22;33997;53.278;9.708;2023-04-03T10:18:39;10.60;48.90
48208;DHT22;33997;53.278;9.708;2023-04-03T10:21:34;10.30;43.70
48208;DHT22;33997;53.278;9.708;2023-04-03T10:27:31;10.70;47.00
48208;DHT22;33997;53.278;9.708;2023-04-03T10:33:01;10.30;42.70
48208;DHT22;33997;53.278;9.708;2023-04-03T10:36:02;10.60;46.40
48208;DHT22;33997;53.278;9.708;2023-04-03T10:41:29;11.50;41.80
48208;DHT22;33997;53.278;9.708;2023-04-03T10:44:12;10.90;41.70
48208;DHT22;33997;53.278;9.708;2023-04-03T10:46:45;11.60;43.60
48208;DHT22;33997;53.278;9.708;2023-04-03T10:49:42;11.80;43.40
48208;DHT22;33997;53.278;9.708;2023-04-03T10:52:39;11.90;40.10
48208;DHT22;33997;53.278;9.708;2023-04-03T10:55:31;11.80;42.00
48208;DHT22;33997;53.278;9.708;2023-04-03T10:57:59;12.00;42.00
48208;DHT22;33997;53.278;9.708;2023-04-03T11:00:43;11.30;40.00
48208;DHT22;33997;53.278;9.708;2023-04-03T11:03:27;11.00;41.70
48208;DHT22;33997;53.278;9.708;2023-04-03T11:05:55;10.20;42.20
48208;DHT22;33997;53.278;9.708;2023-04-03T11:08:46;10.70;41.10
48208;DHT22;33997;53.278;9.708;2023-04-03T11:11:19;10.90;42.30
48208;DHT22;33997;53.278;9.708;2023-04-03T11:13:57;10.70;42.60
48208;DHT22;33997;53.278;9.708;2023-04-03T11:16:31;10.70;39.80
48208;DHT22;33997;53.278;9.708;2023-04-03T11:19:18;11.10;40.80
48208;DHT22;33997;53.278;9.708;2023-04-03T11:22:08;11.60;41.70
48208;DHT22;33997;53.278;9.708;2023-04-03T11:24:39;12.10;40.40
48208;DHT22;33997;53.278;9.708;2023-04-03T11:27:15;12.50;39.70
48208;DHT22;33997;53.278;9.708;2023-04-03T11:29:43;12.10;36.10
48208;DHT22;33997;53.278;9.708;2023-04-03T11:32:50;12.00;37.60
48208;DHT22;33997;53.278;9.708;2023-04-03T11:35:17;12.00;38.50
48208;DHT22;33997;53.278;9.708;2023-04-03T11:37:53;12.70;38.10
48208;DHT22;33997;53.278;9.708;2023-04-03T11:40:21;12.80;37.20
48208;DHT22;33997;53.278;9.708;2023-04-03T11:42:51;12.90;36.80
48208;DHT22;33997;53.278;9.708;2023-04-03T11:48:01;12.30;36.30
48208;DHT22;33997;53.278;9.708;2023-04-03T11:50:46;12.40;35.90
48208;DHT22;33997;53.278;9.708;2023-04-03T11:55:51;13.70;37.40
48208;DHT22;33997;53.278;9.708;2023-04-03T11:58:31;13.50;35.20
48208;DHT22;33997;53.278;9.708;2023-04-03T12:01:03;13.30;36.60
48208;DHT22;33997;53.278;9.708;2023-04-03T12:03:31;13.70;35.80
48208;DHT22;33997;53.278;9.708;2023-04-03T12:13:35;13.80;33.10
48208;DHT22;33997;53.278;9.708;2023-04-03T12:16:03;12.80;34.40
48208;DHT22;33997;53.278;9.708;2023-04-03T12:18:46;13.70;33.80
48208;DHT22;33997;53.278;9.708;2023-04-03T12:32:25;14.50;33.90
48208;DHT22;33997;53.278;9.708;2023-04-03T12:44:00;13.10;36.00
48208;DHT22;33997;53.278;9.708;2023-04-03T12:46:35;13.90;34.70
48208;DHT22;33997;53.278;9.708;2023-04-03T12:49:17;14.40;35.50
48208;DHT22;33997;53.278;9.708;2023-04-03T12:51:47;14.60;31.70
48208;DHT22;33997;53.278;9.708;2023-04-03T12:54:19;14.50;35.20
48208;DHT22;33997;53.278;9.708;2023-04-03T12:56:45;14.40;34.00
48208;DHT22;33997;53.278;9.708;2023-04-03T12:59:33;14.70;32.00
48208;DHT22;33997;53.278;9.708;2023-04-03T13:02:01;14.70;34.90
48208;DHT22;33997;53.278;9.708;2023-04-03T13:04:28;15.00;33.00
48208;DHT22;33997;53.278;9.708;2023-04-03T13:06:54;15.00;32.60
48208;DHT22;33997;53.278;9.708;2023-04-03T13:09:26;15.50;31.20
48208;DHT22;33997;53.278;9.708;2023-04-03T13:12:14;15.20;30.90
48208;DHT22;33997;53.278;9.708;2023-04-03T13:14:40;15.80;33.00
48208;DHT22;33997;53.278;9.708;2023-04-03T13:17:12;16.10;30.70
48208;DHT22;33997;53.278;9.708;2023-04-03T13:19:39;16.20;31.50
48208;DHT22;33997;53.278;9.708;2023-04-03T13:22:19;15.50;32.10
48208;DHT22;33997;53.278;9.708;2023-04-03T13:24:47;15.60;33.60
48208;DHT22;33997;53.278;9.708;2023-04-03T13:27:15;16.00;30.70
48208;DHT22;33997;53.278;9.708;2023-04-03T13:29:40;15.90;32.70
48208;DHT22;33997;53.278;9.708;2023-04-03T13:32:06;17.10;31.60
48208;DHT22;33997;53.278;9.708;2023-04-03T13:34:38;17.80;30.70
48208;DHT22;33997;53.278;9.708;2023-04-03T13:37:06;17.70;31.00
48208;DHT22;33997;53.278;9.708;2023-04-03T13:39:36;15.90;30.90
48208;DHT22;33997;53.278;9.708;2023-04-03T13:42:24;15.40;33.10
48208;DHT22;33997;53.278;9.708;2023-04-03T13:45:22;14.60;32.90
48208;DHT22;33997;53.278;9.708;2023-04-03T13:47:51;13.50;36.30
48208;DHT22;33997;53.278;9.708;2023-04-03T13:50:26;12.50;37.30
48208;DHT22;33997;53.278;9.708;2023-04-03T13:53:11;12.50;38.30
48208;DHT22;33997;53.278;9.708;2023-04-03T13:56:06;14.20;37.50
48208;DHT22;33997;53.278;9.708;2023-04-03T13:58:33;15.40;33.10
48208;DHT22;33997;53.278;9.708;2023-04-03T14:01:18;15.30;34.30
48208;DHT22;33997;53.278;9.708;2023-04-03T14:04:00;15.40;32.70
48208;DHT22;33997;53.278;9.708;2023-04-03T14:06:26;16.10;32.50
48208;DHT22;33997;53.278;9.708;2023-04-03T14:08:53;15.60;30.70
48208;DHT22;33997;53.278;9.708;2023-04-03T14:11:24;16.10;31.60
48208;DHT22;33997;53.278;9.708;2023-04-03T14:13:53;16.50;30.90
48208;DHT22;33997;53.278;9.708;2023-04-03T14:16:21;17.20;31.10
48208;DHT22;33997;53.278;9.708;2023-04-03T14:18:48;17.40;30.90
48208;DHT22;33997;53.278;9.708;2023-04-03T14:21:17;16.00;31.50
48208;DHT22;33997;53.278;9.708;2023-04-03T14:23:43;15.20;32.20
48208;DHT22;33997;53.278;9.708;2023-04-03T14:26:12;14.80;33.20
48208;DHT22;33997;53.278;9.708;2023-04-03T14:28:38;15.70;33.30
48208;DHT22;33997;53.278;9.708;2023-04-03T14:31:05;16.40;32.30
48208;DHT22;33997;53.278;9.708;2023-04-03T14:33:30;16.70;31.40
48208;DHT22;33997;53.278;9.708;2023-04-03T14:36:00;17.00;29.90
48208;DHT22;33997;53.278;9.708;2023-04-03T14:38:29;16.50;29.90
48208;DHT22;33997;53.278;9.708;2023-04-03T14:40:56;15.30;31.60
48208;DHT22;33997;53.278;9.708;2023-04-03T14:43:22;15.90;32.40
48208;DHT22;33997;53.278;9.708;2023-04-03T14:45:49;16.40;32.70
48208;DHT22;33997;53.278;9.708;2023-04-03T14:48:21;15.50;32.80
48208;DHT22;33997;53.278;9.708;2023-04-03T14:50:48;14.90;34.00
48208;DHT22;33997;53.278;9.708;2023-04-03T14:53:14;13.60;35.20
48208;DHT22;33997;53.278;9.708;2023-04-03T14:55:43;13.60;37.40
48208;DHT22;33997;53.278;9.708;2023-04-03T14:58:16;13.00;34.90
48208;DHT22;33997;53.278;9.708;2023-04-03T15:00:42;14.50;35.70
48208;DHT22;33997;53.278;9.708;2023-04-03T15:03:13;15.60;32.10
48208;DHT22;33997;53.278;9.708;2023-04-03T15:05:40;16.20;33.10
48208;DHT22;33997;53.278;9.708;2023-04-03T15:08:23;15.80;30.70
48208;DHT22;33997;53.278;9.708;2023-04-03T15:10:50;17.10;31.60
48208;DHT22;33997;53.278;9.708;2023-04-03T15:13:18;17.80;30.70
48208;DHT22;33997;53.278;9.708;2023-04-03T15:15:44;17.30;29.80
48208;DHT22;33997;53.278;9.708;2023-04-03T15:18:19;17.00;30.60
48208;DHT22;33997;53.278;9.708;2023-04-03T15:20:45;16.30;28.50
48208;DHT22;33997;53.278;9.708;2023-04-03T15:23:15;16.70;30.00
48208;DHT22;33997;53.278;9.708;2023-04-03T15:25:42;16.70;30.50
48208;DHT22;33997;53.278;9.708;2023-04-03T15:28:13;15.60;31.00
48208;DHT22;33997;53.278;9.708;2023-04-03T15:30:41;14.00;31.00
48208;DHT22;33997;53.278;9.708;2023-04-03T15:33:08;15.00;33.10
48208;DHT22;33997;53.278;9.708;2023-04-03T15:35:33;16.00;31.30
48208;DHT22;33997;53.278;9.708;2023-04-03T15:37:59;16.50;32.50
48208;DHT22;33997;53.278;9.708;2023-04-03T15:40:25;17.20;30.50
48208;DHT22;33997;53.278;9.708;2023-04-03T15:42:51;17.40;28.90
48208;DHT22;33997;53.278;9.708;2023-04-03T15:45:16;17.60;29.00
48208;DHT22;33997;53.278;9.708;2023-04-03T15:47:42;17.10;29.90
48208;DHT22;33997;53.278;9.708;2023-04-03T15:50:08;17.20;28.90
48208;DHT22;33997;53.278;9.708;2023-04-03T15:52:34;17.30;28.60
48208;DHT22;33997;53.278;9.708;2023-04-03T15:54:59;17.70;28.30
48208;DHT22;33997;53.278;9.708;2023-04-03T15:57:25;17.00;28.70
48208;DHT22;33997;53.278;9.708;2023-04-03T15:59:52;17.30;28.50
48208;DHT22;33997;53.278;9.708;2023-04-03T16:02:17;16.50;27.70
48208;DHT22;33997;53.278;9.708;2023-04-03T16:04:43;16.50;28.60
48208;DHT22;33997;53.278;9.708;2023-04-03T16:07:08;16.30;28.60
48208;DHT22;33997;53.278;9.708;2023-04-03T16:09:34;15.10;29.10
48208;DHT22;33997;53.278;9.708;2023-04-03T16:12:00;15.90;29.60
48208;DHT22;33997;53.278;9.708;2023-04-03T16:14:27;15.40;28.70
48208;DHT22;33997;53.278;9.708;2023-04-03T16:16:55;16.00;29.90
48208;DHT22;33997;53.278;9.708;2023-04-03T16:19:21;15.60;29.40
48208;DHT22;33997;53.278;9.708;2023-04-03T16:21:47;15.50;29.80
48208;DHT22;33997;53.278;9.708;2023-04-03T16:24:12;15.90;29.40
48208;DHT22;33997;53.278;9.708;2023-04-03T16:26:38;16.30;28.30